• Join FlightAware (Why Join?)
  • Login
  • US Flag 
03:02PM EDT


 

Airport Tracker/Info


-or-


 

Live Flight TrackerFlight Track Log ✈ TCF3494 ✈ 06-Jun-2013 ✈ KORD - KLGA

Flight Track Log - Related Links

Times and Time Zones

All times are in EDT time to prevent confusion due to time zone crossing. See the TCF3494 flight status page for this flight to view local times or setup timezone preferences in your user account.

Time Position Orientation Groundspeed Altitude Reporting Facility
EDT Latitude Longitude Course Direction KTS MPH feet Rate Location/Type
08:09PM 42.0000 -87.8667 85° East 165 190 2,100  Level Chicago TRACON
08:10PM 42.0061 -87.7858 84° East 200 230 4,200 1,260 Climbing Chicago Center
08:11PM 41.9423 -87.2576 95° East  Level FlightAware Approximate
08:11PM 41.9994 -87.6822 95° East 266 306 5,000  Level Chicago Center
08:12PM 41.9333 -87.0972 90° East  Level FlightAware Approximate
08:12PM 41.9906 -87.5756 96° East 285 328 8,200  Level Chicago Center
08:13PM 41.9333 -86.9361 90° East  Level FlightAware Approximate
08:13PM 41.9806 -87.4658 97° East 293 337 11,200  Level Chicago Center
08:14PM 41.9339 -86.7751 85° East  Level FlightAware Approximate
08:14PM 41.9683 -87.3233 97° East 321 369 14,300  Level Chicago Center
08:15PM 41.9578 -87.2033 97° East 325 374 16,800 1,620 Climbing Chicago Center
08:16PM 41.9461 -87.0692 97° East 365 420 17,700 1,260 Climbing Chicago Center
08:17PM 41.9492 -86.9203 88° East 395 455 19,500 1,740 Climbing Chicago Center
08:18PM 41.9508 -86.7642 89° East 413 475 21,400 1,680 Climbing Chicago Center
08:19PM 41.9511 -86.5989 90° East 440 506 23,000 1,680 Climbing Chicago Center
08:20PM 41.9533 -86.3983 89° East 448 516 24,900 1,560 Climbing Chicago Center
08:21PM 41.9550 -86.2267 89° East 455 524 26,300 1,200 Climbing Chicago Center
08:22PM 41.9408 -86.0544 96° East 464 534 27,500 1,020 Climbing Chicago Center
08:23PM 41.9242 -85.8800 97° East 471 542 28,500 840 Climbing Chicago Center
08:24PM 41.9075 -85.6992 97° East 483 556 29,300 720 Climbing Chicago Center
08:25PM 41.8897 -85.5125 97° East 497 572 30,100 720 Climbing Chicago Center
08:26PM 41.8708 -85.3206 97° East 509 586 30,900 780 Climbing Chicago Center
08:27PM 41.8517 -85.1275 98° East 516 594 31,800 780 Climbing Chicago Center
08:28PM 41.8275 -84.8925 98° East 528 608 32,600 720 Climbing Chicago Center
08:29PM 41.8064 -84.6939 98° East 535 616 33,300 720 Climbing Chicago Center
08:30PM 41.7994 -84.6139 97° East 529 609 33,700 960 Climbing Cleveland Center
08:31PM 41.7833 -84.4125 96° East 529 609 34,800 600 Climbing Cleveland Center
08:32PM 41.7739 -84.1919 93° East 529 609 35,000 60 Climbing Cleveland Center
08:33PM 41.7739 -83.9886 90° East 541 623 35,000  Level Cleveland Center
08:34PM 41.7697 -83.7739 91° East 556 640 35,000  Level Cleveland Center
08:35PM 41.7669 -83.5650 91° East 561 646 35,000  Level Cleveland Center
08:36PM 41.7492 -83.3553 96° East 566 651 35,000  Level Cleveland Center
08:37PM 41.7308 -83.1653 97° East 572 658 35,000  Level Cleveland Center
08:38PM 41.7103 -82.9558 97° East 572 658 35,000  Level Cleveland Center
08:39PM 41.6894 -82.7492 98° East 572 658 35,000  Level Cleveland Center
08:40PM 41.6681 -82.5428 98° East 562 647 35,000  Level Cleveland Center
08:41PM 41.6444 -82.3169 98° East 562 647 35,000  Level Cleveland Center
08:42PM 41.6225 -82.1108 98° East 562 647 35,000  Level Cleveland Center
08:43PM 41.6000 -81.9047 98° East 562 647 35,000  Level Cleveland Center
08:44PM 41.5792 -81.7017 98° East 562 647 35,000  Level Cleveland Center
08:45PM 41.5561 -81.4961 98° East 562 647 35,000  Level Cleveland Center
08:46PM 41.5344 -81.3100 99° East 562 647 35,000  Level Cleveland Center
08:47PM 41.5106 -81.1100 99° East 556 640 35,000  Level Cleveland Center
08:48PM 41.4947 -80.9047 96° East 561 646 35,000  Level Cleveland Center
08:49PM 41.4764 -80.6994 97° East 556 640 35,000  Level Cleveland Center
08:50PM 41.4556 -80.4806 97° East 556 640 35,000  Level Cleveland Center
08:51PM 41.4406 -80.2950 96° East 556 640 35,000  Level Cleveland Center
08:52PM 41.4211 -80.0931 97° East 556 640 35,000  Level Cleveland Center
08:53PM 41.4014 -79.8939 97° East 556 640 35,000  Level Cleveland Center
08:54PM 41.3792 -79.6919 98° East 556 640 35,000  Level Cleveland Center
08:55PM 41.3606 -79.4903 97° East 556 640 35,000  Level Cleveland Center
08:56PM 41.3400 -79.2917 98° East 556 640 35,000  Level Cleveland Center
08:57PM 41.3186 -79.0958 98° East 546 628 35,000  Level Cleveland Center
08:58PM 41.2992 -78.8944 97° East 546 628 35,000  Level Cleveland Center
08:59PM 41.2794 -78.6958 97° East 541 623 35,000  Level Cleveland Center
09:00PM 41.2553 -78.4978 99° East 541 623 35,000 -420 Level Cleveland Center
09:01PM 41.2244 -78.2333 99° East 549 632 34,100 -900 Descending New York Center
09:02PM 41.2011 -78.0378 99° East 544 626 33,000 -600 Descending New York Center
09:03PM 41.1775 -77.8394 99° East 539 620 33,000  Level New York Center
09:04PM 41.1536 -77.6439 99° East 539 620 33,000  Level New York Center
09:05PM 41.1278 -77.4403 99° East 544 626 33,000  Level New York Center
09:06PM 41.0986 -77.2528 102° East 537 618 33,000 -1,320 Level New York Center
09:07PM 41.0758 -77.0578 99° East 532 612 30,400 -2,700 Descending New York Center
09:08PM 41.0503 -76.8683 100° East 532 612 27,700 -2,700 Descending New York Center
09:09PM 41.0219 -76.6869 102° East 517 595 25,000 -2,640 Descending New York Center
09:10PM 40.9844 -76.5186 106° East 494 568 22,500 -2,520 Descending New York Center
09:11PM 40.9483 -76.3564 106° East 481 554 20,100 -2,220 Descending New York Center
09:12PM 40.9064 -76.1825 108° East 448 516 18,000 -1,260 Descending New York Center
09:13PM 40.8731 -76.0456 108° East 442 509 17,700 -1,320 Descending New York Center
09:14PM 40.8358 -75.8944 108° East 436 502 15,500 -2,340 Descending New York Center
09:15PM 40.7989 -75.7381 107° East 415 478 13,000 -1,260 Descending New York Center
09:16PM 40.7631 -75.5986 109° East 405 466 13,000  Level New York Center
09:17PM 40.7292 -75.4564 107° East 405 466 13,000  Level New York Center
09:18PM 40.6928 -75.3172 109° East 405 466 13,000 -180 Level New York Center
09:19PM 40.6414 -75.1881 118° Southeast 393 452 12,700 -1,140 Descending New York Center
09:20PM 40.5897 -75.0644 119° Southeast 393 452 10,700 -1,380 Descending New York Center
09:21PM 40.5522 -74.9500 113° Southeast 381 438 10,000 -360 Descending New York Center
09:22PM 40.5150 -74.8250 111° Southeast 345 397 10,000  Level New York Center
09:23PM 40.4847 -74.7303 113° Southeast 320 368 10,000  Level New York Center
09:24PM 40.4528 -74.6275 112° Southeast 314 361 10,000  Level New York Center
09:25PM 40.4333 -74.5167 103° East 273 314 10,000 -360 Level New York TRACON
09:26PM 40.4500 -74.4333 75° East 275 316 9,300 -900 Descending New York TRACON
09:27PM 40.4833 -74.3333 66° East 269 310 8,200 -720 Descending New York TRACON
09:28PM 40.5000 -74.2500 75° East 259 298 8,000 -480 Descending New York TRACON
09:29PM 40.5333 -74.1667 62° Northeast 224 258 7,300 -960 Descending New York TRACON
09:30PM 40.5667 -74.1000 57° Northeast 228 262 6,000 -1,260 Descending New York TRACON
09:31PM 40.6167 -74.0833 14° North 217 250 5,000 -1,020 Descending New York TRACON
09:32PM 40.6833 -74.0667 11° North 206 237 4,000 -540 Descending New York TRACON
09:33PM 40.7333 -74.0333 27° Northeast 206 237 4,000  Level New York TRACON
09:34PM 40.7833 -74.0000 27° Northeast 206 237 4,000  Level New York TRACON
09:35PM 40.8333 -73.9833 14° North 208 239 4,000  Level New York TRACON
09:36PM 40.8833 -73.9500 27° Northeast 209 241 4,000  Level New York TRACON
09:37PM 40.9333 -73.9167 27° Northeast 206 237 4,000 -120 Level New York TRACON
09:38PM 40.9833 -73.8833 27° Northeast 202 232 3,800 -540 Descending New York TRACON
09:39PM 40.9667 -73.8167 108° East 179 206 3,000 -540 Descending New York TRACON
09:40PM 40.9333 -73.7833 143° Southeast 174 200 2,800 -540 Descending New York TRACON
09:41PM 40.8833 -73.7833 180° South 166 191 2,000 -720 Descending New York TRACON
09:42PM 40.8500 -73.8167 217° Southwest 168 193 1,400 -600 Descending New York TRACON